sensor_id;sensor_type;location;lat;lon;timestamp;pressure;altitude;pressure_sealevel;temperature;humidity
5298;BME280;14738;42.668;23.250;2023-12-04T00:00:21;48570.97;;;-141.90;100.00
5298;BME280;14738;42.668;23.250;2023-12-04T00:02:46;48551.09;;;-141.90;100.00
5298;BME280;14738;42.668;23.250;2023-12-04T00:05:11;48547.13;;;-141.90;100.00
5298;BME280;14738;42.668;23.250;2023-12-04T00:07:37;48563.03;;;-141.90;100.00
5298;BME280;14738;42.668;23.250;2023-12-04T00:10:02;48588.84;;;-141.90;100.00
5298;BME280;14738;42.668;23.250;2023-12-04T00:12:28;48574.94;;;-141.90;100.00
5298;BME280;14738;42.668;23.250;2023-12-04T00:14:53;48547.13;;;-141.90;100.00
5298;BME280;14738;42.668;23.250;2023-12-04T00:17:18;48565.00;;;-141.90;100.00
5298;BME280;14738;42.668;23.250;2023-12-04T00:19:44;48563.03;;;-141.90;100.00
5298;BME280;14738;42.668;23.250;2023-12-04T00:22:09;48582.88;;;-141.90;100.00
5298;BME280;14738;42.668;23.250;2023-12-04T00:24:35;48529.28;;;-141.90;100.00
5298;BME280;14738;42.668;23.250;2023-12-04T00:27:00;48501.47;;;-141.90;100.00
5298;BME280;14738;42.668;23.250;2023-12-04T00:29:25;48565.00;;;-141.90;100.00
5298;BME280;14738;42.668;23.250;2023-12-04T00:31:51;48551.09;;;-141.90;100.00
5298;BME280;14738;42.668;23.250;2023-12-04T00:34:16;48561.03;;;-141.90;100.00
5298;BME280;14738;42.668;23.250;2023-12-04T00:36:42;48529.28;;;-141.90;100.00
5298;BME280;14738;42.668;23.250;2023-12-04T00:39:07;48588.84;;;-141.90;100.00
5298;BME280;14738;42.668;23.250;2023-12-04T00:41:33;48551.09;;;-141.90;100.00
5298;BME280;14738;42.668;23.250;2023-12-04T00:43:59;48533.25;;;-141.90;100.00
5298;BME280;14738;42.668;23.250;2023-12-04T00:46:24;48551.09;;;-141.90;100.00
5298;BME280;14738;42.668;23.250;2023-12-04T00:48:50;48567.00;;;-141.90;100.00
5298;BME280;14738;42.668;23.250;2023-12-04T00:51:16;48576.91;;;-141.90;100.00
5298;BME280;14738;42.668;23.250;2023-12-04T00:53:41;48557.06;;;-141.90;100.00
5298;BME280;14738;42.668;23.250;2023-12-04T00:56:07;48551.09;;;-141.90;100.00
5298;BME280;14738;42.668;23.250;2023-12-04T00:58:33;48568.97;;;-141.90;100.00
5298;BME280;14738;42.668;23.250;2023-12-04T01:00:58;48588.84;;;-141.90;100.00
5298;BME280;14738;42.668;23.250;2023-12-04T01:03:24;48596.78;;;-141.90;100.00
5298;BME280;14738;42.668;23.250;2023-12-04T01:05:51;48561.03;;;-141.90;100.00
5298;BME280;14738;42.668;23.250;2023-12-04T01:08:17;48543.16;;;-141.90;100.00
5298;BME280;14738;42.668;23.250;2023-12-04T01:10:43;48568.97;;;-141.90;100.00
5298;BME280;14738;42.668;23.250;2023-12-04T01:13:08;48568.97;;;-141.90;100.00
5298;BME280;14738;42.668;23.250;2023-12-04T01:15:34;48549.13;;;-141.90;100.00
5298;BME280;14738;42.668;23.250;2023-12-04T01:17:59;48570.97;;;-141.90;100.00
5298;BME280;14738;42.668;23.250;2023-12-04T01:20:25;48567.00;;;-141.90;100.00
5298;BME280;14738;42.668;23.250;2023-12-04T01:22:51;48543.16;;;-141.90;100.00
5298;BME280;14738;42.668;23.250;2023-12-04T01:25:16;48568.97;;;-141.90;100.00
5298;BME280;14738;42.668;23.250;2023-12-04T01:27:42;48549.13;;;-141.90;100.00
5298;BME280;14738;42.668;23.250;2023-12-04T01:30:07;48545.16;;;-141.90;100.00
5298;BME280;14738;42.668;23.250;2023-12-04T01:32:34;48565.00;;;-141.90;100.00
5298;BME280;14738;42.668;23.250;2023-12-04T01:35:00;48600.75;;;-141.90;100.00
5298;BME280;14738;42.668;23.250;2023-12-04T01:37:25;48541.19;;;-141.90;100.00
5298;BME280;14738;42.668;23.250;2023-12-04T01:39:50;48563.03;;;-141.90;100.00
5298;BME280;14738;42.668;23.250;2023-12-04T01:42:16;48572.94;;;-141.90;100.00
5298;BME280;14738;42.668;23.250;2023-12-04T01:44:41;48559.06;;;-141.90;100.00
5298;BME280;14738;42.668;23.250;2023-12-04T01:47:07;48586.84;;;-141.90;100.00
5298;BME280;14738;42.668;23.250;2023-12-04T01:49:32;48561.03;;;-141.90;100.00
5298;BME280;14738;42.668;23.250;2023-12-04T01:51:58;48531.25;;;-141.90;100.00
5298;BME280;14738;42.668;23.250;2023-12-04T01:54:24;48584.84;;;-141.90;100.00
5298;BME280;14738;42.668;23.250;2023-12-04T01:56:50;48547.13;;;-141.90;100.00
5298;BME280;14738;42.668;23.250;2023-12-04T01:59:15;48572.94;;;-141.90;100.00
5298;BME280;14738;42.668;23.250;2023-12-04T02:01:41;48535.22;;;-141.90;100.00
5298;BME280;14738;42.668;23.250;2023-12-04T02:04:07;48572.94;;;-141.90;100.00
5298;BME280;14738;42.668;23.250;2023-12-04T02:06:32;48555.09;;;-141.90;100.00
5298;BME280;14738;42.668;23.250;2023-12-04T02:08:58;48565.00;;;-141.90;100.00
5298;BME280;14738;42.668;23.250;2023-12-04T02:11:23;48551.09;;;-141.90;100.00
5298;BME280;14738;42.668;23.250;2023-12-04T02:13:49;48590.81;;;-141.90;100.00
5298;BME280;14738;42.668;23.250;2023-12-04T02:16:16;48582.88;;;-141.90;100.00
5298;BME280;14738;42.668;23.250;2023-12-04T02:18:44;48557.06;;;-141.90;100.00
5298;BME280;14738;42.668;23.250;2023-12-04T02:21:09;48565.00;;;-141.90;100.00
5298;BME280;14738;42.668;23.250;2023-12-04T02:23:35;48590.81;;;-141.90;100.00
5298;BME280;14738;42.668;23.250;2023-12-04T02:26:09;48557.06;;;-141.90;100.00
5298;BME280;14738;42.668;23.250;2023-12-04T02:28:37;48529.28;;;-141.90;100.00
5298;BME280;14738;42.668;23.250;2023-12-04T02:31:04;48576.91;;;-141.90;100.00
5298;BME280;14738;42.668;23.250;2023-12-04T02:33:30;48596.78;;;-141.90;100.00
5298;BME280;14738;42.668;23.250;2023-12-04T02:35:57;48572.94;;;-141.90;100.00
5298;BME280;14738;42.668;23.250;2023-12-04T02:38:23;48572.94;;;-141.90;100.00
5298;BME280;14738;42.668;23.250;2023-12-04T02:40:50;48561.03;;;-141.90;100.00
5298;BME280;14738;42.668;23.250;2023-12-04T02:43:15;48568.97;;;-141.90;100.00
5298;BME280;14738;42.668;23.250;2023-12-04T02:45:41;48572.94;;;-141.90;100.00
5298;BME280;14738;42.668;23.250;2023-12-04T02:48:07;48584.84;;;-141.90;100.00
5298;BME280;14738;42.668;23.250;2023-12-04T02:50:32;48592.81;;;-141.90;100.00
5298;BME280;14738;42.668;23.250;2023-12-04T02:52:58;48592.81;;;-141.90;100.00
5298;BME280;14738;42.668;23.250;2023-12-04T02:55:23;48572.94;;;-141.90;100.00
5298;BME280;14738;42.668;23.250;2023-12-04T02:57:49;48572.94;;;-141.90;100.00
5298;BME280;14738;42.668;23.250;2023-12-04T03:00:15;48559.06;;;-141.90;100.00
5298;BME280;14738;42.668;23.250;2023-12-04T03:02:41;48612.66;;;-141.90;100.00
5298;BME280;14738;42.668;23.250;2023-12-04T03:05:06;48572.94;;;-141.90;100.00
5298;BME280;14738;42.668;23.250;2023-12-04T03:07:31;48572.94;;;-141.90;100.00
5298;BME280;14738;42.668;23.250;2023-12-04T03:09:57;48572.94;;;-141.90;100.00
5298;BME280;14738;42.668;23.250;2023-12-04T03:12:22;48592.81;;;-141.90;100.00
5298;BME280;14738;42.668;23.250;2023-12-04T03:14:47;48574.94;;;-141.90;100.00
5298;BME280;14738;42.668;23.250;2023-12-04T03:17:13;48572.94;;;-141.90;100.00
5298;BME280;14738;42.668;23.250;2023-12-04T03:19:38;48551.09;;;-141.90;100.00
5298;BME280;14738;42.668;23.250;2023-12-04T03:22:03;48598.75;;;-141.90;100.00
5298;BME280;14738;42.668;23.250;2023-12-04T03:24:29;48606.69;;;-141.90;100.00
5298;BME280;14738;42.668;23.250;2023-12-04T03:26:54;48553.09;;;-141.90;100.00
5298;BME280;14738;42.668;23.250;2023-12-04T03:29:19;48584.84;;;-141.90;100.00
5298;BME280;14738;42.668;23.250;2023-12-04T03:31:45;48555.09;;;-141.90;100.00
5298;BME280;14738;42.668;23.250;2023-12-04T03:34:10;48580.88;;;-141.90;100.00
5298;BME280;14738;42.668;23.250;2023-12-04T03:36:36;48576.91;;;-141.90;100.00
5298;BME280;14738;42.668;23.250;2023-12-04T03:39:01;48568.97;;;-141.90;100.00
5298;BME280;14738;42.668;23.250;2023-12-04T03:41:26;48582.88;;;-141.90;100.00
5298;BME280;14738;42.668;23.250;2023-12-04T03:43:52;48561.03;;;-141.90;100.00
5298;BME280;14738;42.668;23.250;2023-12-04T03:46:17;48555.09;;;-141.90;100.00
5298;BME280;14738;42.668;23.250;2023-12-04T03:48:42;48604.72;;;-141.90;100.00
5298;BME280;14738;42.668;23.250;2023-12-04T03:51:08;48596.78;;;-141.90;100.00
5298;BME280;14738;42.668;23.250;2023-12-04T03:53:33;48588.84;;;-141.90;100.00
5298;BME280;14738;42.668;23.250;2023-12-04T03:55:58;48572.94;;;-141.90;100.00
5298;BME280;14738;42.668;23.250;2023-12-04T03:58:24;48588.84;;;-141.90;100.00
5298;BME280;14738;42.668;23.250;2023-12-04T04:00:49;48596.78;;;-141.90;100.00
5298;BME280;14738;42.668;23.250;2023-12-04T04:03:15;48608.69;;;-141.90;100.00
5298;BME280;14738;42.668;23.250;2023-12-04T04:05:40;48606.69;;;-141.90;100.00
5298;BME280;14738;42.668;23.250;2023-12-04T04:08:05;48606.69;;;-141.90;100.00
5298;BME280;14738;42.668;23.250;2023-12-04T04:10:33;48604.72;;;-141.90;100.00
5298;BME280;14738;42.668;23.250;2023-12-04T04:12:58;48567.00;;;-141.90;100.00
5298;BME280;14738;42.668;23.250;2023-12-04T04:15:24;48628.53;;;-141.90;100.00
5298;BME280;14738;42.668;23.250;2023-12-04T04:17:49;48606.69;;;-141.90;100.00
5298;BME280;14738;42.668;23.250;2023-12-04T04:20:15;48572.94;;;-141.90;100.00
5298;BME280;14738;42.668;23.250;2023-12-04T04:22:40;48592.81;;;-141.90;100.00
5298;BME280;14738;42.668;23.250;2023-12-04T04:25:09;48640.44;;;-141.90;100.00
5298;BME280;14738;42.668;23.250;2023-12-04T04:27:35;48612.66;;;-141.90;100.00
5298;BME280;14738;42.668;23.250;2023-12-04T04:30:01;48632.50;;;-141.90;100.00
5298;BME280;14738;42.668;23.250;2023-12-04T04:32:26;48628.53;;;-141.90;100.00
5298;BME280;14738;42.668;23.250;2023-12-04T04:34:52;48648.38;;;-141.90;100.00
5298;BME280;14738;42.668;23.250;2023-12-04T04:37:17;48596.78;;;-141.90;100.00
5298;BME280;14738;42.668;23.250;2023-12-04T04:39:43;48634.50;;;-141.90;100.00
5298;BME280;14738;42.668;23.250;2023-12-04T04:42:08;48616.63;;;-141.90;100.00
5298;BME280;14738;42.668;23.250;2023-12-04T04:44:34;48634.50;;;-141.90;100.00
5298;BME280;14738;42.668;23.250;2023-12-04T04:46:59;48594.78;;;-141.90;100.00
5298;BME280;14738;42.668;23.250;2023-12-04T04:49:25;48618.59;;;-141.90;100.00
5298;BME280;14738;42.668;23.250;2023-12-04T04:51:50;48630.53;;;-141.90;100.00
5298;BME280;14738;42.668;23.250;2023-12-04T04:54:16;48640.44;;;-141.90;100.00
5298;BME280;14738;42.668;23.250;2023-12-04T04:56:41;48592.81;;;-141.90;100.00
5298;BME280;14738;42.668;23.250;2023-12-04T04:59:06;48620.59;;;-141.90;100.00
5298;BME280;14738;42.668;23.250;2023-12-04T05:01:32;48640.44;;;-141.90;100.00
5298;BME280;14738;42.668;23.250;2023-12-04T05:03:57;48624.56;;;-141.90;100.00
5298;BME280;14738;42.668;23.250;2023-12-04T05:06:22;48638.47;;;-141.90;100.00
5298;BME280;14738;42.668;23.250;2023-12-04T05:08:48;48612.66;;;-141.90;100.00
5298;BME280;14738;42.668;23.250;2023-12-04T05:11:15;48610.66;;;-141.90;100.00
5298;BME280;14738;42.668;23.250;2023-12-04T05:13:41;48624.56;;;-141.90;100.00
5298;BME280;14738;42.668;23.250;2023-12-04T05:16:06;48612.66;;;-141.90;100.00
5298;BME280;14738;42.668;23.250;2023-12-04T05:18:32;48648.38;;;-141.90;100.00
5298;BME280;14738;42.668;23.250;2023-12-04T05:20:57;48624.56;;;-141.90;100.00
5298;BME280;14738;42.668;23.250;2023-12-04T05:23:23;48644.41;;;-141.90;100.00
5298;BME280;14738;42.668;23.250;2023-12-04T05:25:48;48592.81;;;-141.90;100.00
5298;BME280;14738;42.668;23.250;2023-12-04T05:28:14;48632.50;;;-141.90;100.00
5298;BME280;14738;42.668;23.250;2023-12-04T05:30:39;48648.38;;;-141.90;100.00
5298;BME280;14738;42.668;23.250;2023-12-04T05:33:04;48620.59;;;-141.90;100.00
5298;BME280;14738;42.668;23.250;2023-12-04T05:35:30;48602.72;;;-141.90;100.00
5298;BME280;14738;42.668;23.250;2023-12-04T05:37:58;48648.38;;;-141.90;100.00
5298;BME280;14738;42.668;23.250;2023-12-04T05:40:24;48634.50;;;-141.90;100.00
5298;BME280;14738;42.668;23.250;2023-12-04T05:42:49;48602.72;;;-141.90;100.00
5298;BME280;14738;42.668;23.250;2023-12-04T05:45:14;48624.56;;;-141.90;100.00
5298;BME280;14738;42.668;23.250;2023-12-04T05:47:40;48594.78;;;-141.90;100.00
5298;BME280;14738;42.668;23.250;2023-12-04T05:50:06;48640.44;;;-141.90;100.00
5298;BME280;14738;42.668;23.250;2023-12-04T05:52:32;48636.47;;;-141.90;100.00
5298;BME280;14738;42.668;23.250;2023-12-04T05:54:57;48624.56;;;-141.90;100.00
5298;BME280;14738;42.668;23.250;2023-12-04T05:57:23;48632.50;;;-141.90;100.00
5298;BME280;14738;42.668;23.250;2023-12-04T05:59:48;48652.38;;;-141.90;100.00
5298;BME280;14738;42.668;23.250;2023-12-04T06:02:14;48622.59;;;-141.90;100.00
5298;BME280;14738;42.668;23.250;2023-12-04T06:04:40;48640.44;;;-141.90;100.00
5298;BME280;14738;42.668;23.250;2023-12-04T06:07:05;48634.50;;;-141.90;100.00
5298;BME280;14738;42.668;23.250;2023-12-04T06:09:32;48638.47;;;-141.90;100.00
5298;BME280;14738;42.668;23.250;2023-12-04T06:11:57;48612.66;;;-141.90;100.00
5298;BME280;14738;42.668;23.250;2023-12-04T06:14:23;48642.44;;;-141.90;100.00
5298;BME280;14738;42.668;23.250;2023-12-04T06:16:48;48654.34;;;-141.90;100.00
5298;BME280;14738;42.668;23.250;2023-12-04T06:19:13;48624.56;;;-141.90;100.00
5298;BME280;14738;42.668;23.250;2023-12-04T06:21:39;48628.53;;;-141.90;100.00
5298;BME280;14738;42.668;23.250;2023-12-04T06:24:05;48636.47;;;-141.90;100.00
5298;BME280;14738;42.668;23.250;2023-12-04T06:26:31;48616.63;;;-141.90;100.00
5298;BME280;14738;42.668;23.250;2023-12-04T06:28:57;48568.97;;;-141.90;100.00
5298;BME280;14738;42.668;23.250;2023-12-04T06:31:23;48596.78;;;-141.90;100.00
5298;BME280;14738;42.668;23.250;2023-12-04T06:33:48;48600.75;;;-141.90;100.00
5298;BME280;14738;42.668;23.250;2023-12-04T06:36:15;48584.84;;;-141.90;100.00
5298;BME280;14738;42.668;23.250;2023-12-04T06:38:43;48588.84;;;-141.90;100.00
5298;BME280;14738;42.668;23.250;2023-12-04T06:41:12;48576.91;;;-141.90;100.00
5298;BME280;14738;42.668;23.250;2023-12-04T06:43:38;48576.91;;;-141.90;100.00
5298;BME280;14738;42.668;23.250;2023-12-04T06:46:04;48574.94;;;-141.90;100.00
5298;BME280;14738;42.668;23.250;2023-12-04T06:48:31;48574.94;;;-141.90;100.00
5298;BME280;14738;42.668;23.250;2023-12-04T06:50:56;48549.13;;;-141.90;100.00
5298;BME280;14738;42.668;23.250;2023-12-04T06:53:21;48596.78;;;-141.90;100.00
5298;BME280;14738;42.668;23.250;2023-12-04T06:55:47;48576.91;;;-141.90;100.00
5298;BME280;14738;42.668;23.250;2023-12-04T06:58:12;48576.91;;;-141.90;100.00
5298;BME280;14738;42.668;23.250;2023-12-04T07:00:38;48549.13;;;-141.90;100.00
5298;BME280;14738;42.668;23.250;2023-12-04T07:03:03;48541.19;;;-141.90;100.00
5298;BME280;14738;42.668;23.250;2023-12-04T07:05:29;48576.91;;;-141.90;100.00
5298;BME280;14738;42.668;23.250;2023-12-04T07:07:54;48549.13;;;-141.90;100.00
5298;BME280;14738;42.668;23.250;2023-12-04T07:10:19;48567.00;;;-141.90;100.00
5298;BME280;14738;42.668;23.250;2023-12-04T07:12:45;48539.19;;;-141.90;100.00
5298;BME280;14738;42.668;23.250;2023-12-04T07:15:11;48557.06;;;-141.90;100.00
5298;BME280;14738;42.668;23.250;2023-12-04T07:17:37;48572.94;;;-141.90;100.00
5298;BME280;14738;42.668;23.250;2023-12-04T07:20:03;48553.09;;;-141.90;100.00
5298;BME280;14738;42.668;23.250;2023-12-04T07:22:31;48547.13;;;-141.90;47.33
5298;BME280;14738;42.668;23.250;2023-12-04T07:24:58;48543.16;;;-141.90;46.59
5298;BME280;14738;42.668;23.250;2023-12-04T07:27:23;48541.19;;;-141.90;46.71
5298;BME280;14738;42.668;23.250;2023-12-04T07:29:49;48567.00;;;-141.90;46.74
5298;BME280;14738;42.668;23.250;2023-12-04T07:32:14;48553.09;;;-141.90;45.59
5298;BME280;14738;42.668;23.250;2023-12-04T07:34:39;48513.38;;;-141.90;45.13
5298;BME280;14738;42.668;23.250;2023-12-04T07:37:05;48531.25;;;-141.90;45.66
5298;BME280;14738;42.668;23.250;2023-12-04T07:39:30;48551.09;;;-141.90;45.38
5298;BME280;14738;42.668;23.250;2023-12-04T07:41:55;48535.22;;;-141.90;45.89
5298;BME280;14738;42.668;23.250;2023-12-04T07:44:21;48549.13;;;-141.90;45.53
5298;BME280;14738;42.668;23.250;2023-12-04T07:46:46;48545.16;;;-141.90;45.48
5298;BME280;14738;42.668;23.250;2023-12-04T07:49:12;48537.22;;;-141.90;45.57
5298;BME280;14738;42.668;23.250;2023-12-04T07:51:37;48565.00;;;-141.90;45.16
5298;BME280;14738;42.668;23.250;2023-12-04T07:54:03;48527.28;;;-141.90;44.54
5298;BME280;14738;42.668;23.250;2023-12-04T07:56:29;48525.31;;;-141.90;45.00
5298;BME280;14738;42.668;23.250;2023-12-04T07:58:55;48547.13;;;-141.90;45.78
5298;BME280;14738;42.668;23.250;2023-12-04T08:01:20;48555.09;;;-141.90;45.49
5298;BME280;14738;42.668;23.250;2023-12-04T08:03:46;48570.97;;;-141.90;45.23
5298;BME280;14738;42.668;23.250;2023-12-04T08:06:11;48561.03;;;-141.90;45.14
5298;BME280;14738;42.668;23.250;2023-12-04T08:08:37;48517.34;;;-141.90;44.92
5298;BME280;14738;42.668;23.250;2023-12-04T08:11:03;48533.25;;;-141.90;44.23
5298;BME280;14738;42.668;23.250;2023-12-04T08:13:28;48549.13;;;-141.90;44.52
5298;BME280;14738;42.668;23.250;2023-12-04T08:15:54;48572.94;;;-141.90;44.89
5298;BME280;14738;42.668;23.250;2023-12-04T08:18:19;48565.00;;;-141.90;43.57
5298;BME280;14738;42.668;23.250;2023-12-04T08:20:45;48535.22;;;-141.90;44.94
5298;BME280;14738;42.668;23.250;2023-12-04T08:23:10;48511.41;;;-141.90;43.81
5298;BME280;14738;42.668;23.250;2023-12-04T08:25:36;48551.09;;;-141.90;42.53
5298;BME280;14738;42.668;23.250;2023-12-04T08:28:03;48517.34;;;-141.90;41.26
5298;BME280;14738;42.668;23.250;2023-12-04T08:30:29;48537.22;;;-141.90;41.32
5298;BME280;14738;42.668;23.250;2023-12-04T08:32:54;48515.38;;;-141.90;40.99
5298;BME280;14738;42.668;23.250;2023-12-04T08:35:20;48533.25;;;-141.90;41.50
5298;BME280;14738;42.668;23.250;2023-12-04T08:37:45;48537.22;;;-141.90;42.38
5298;BME280;14738;42.668;23.250;2023-12-04T08:40:11;48513.38;;;-141.90;41.34
5298;BME280;14738;42.668;23.250;2023-12-04T08:42:37;48481.63;;;-141.90;40.17
5298;BME280;14738;42.668;23.250;2023-12-04T08:45:03;48481.63;;;-141.90;40.20
5298;BME280;14738;42.668;23.250;2023-12-04T08:47:31;48511.41;;;-141.90;39.58
5298;BME280;14738;42.668;23.250;2023-12-04T08:49:56;48497.50;;;-141.90;40.00
5298;BME280;14738;42.668;23.250;2023-12-04T08:52:22;48501.47;;;-141.90;38.90
5298;BME280;14738;42.668;23.250;2023-12-04T08:54:47;48529.28;;;-141.90;39.71
5298;BME280;14738;42.668;23.250;2023-12-04T08:57:13;48529.28;;;-141.90;38.89
5298;BME280;14738;42.668;23.250;2023-12-04T08:59:38;48521.34;;;-141.90;39.98
5298;BME280;14738;42.668;23.250;2023-12-04T09:02:04;48521.34;;;-141.90;38.84
5298;BME280;14738;42.668;23.250;2023-12-04T09:04:32;48479.63;;;-141.90;38.11
5298;BME280;14738;42.668;23.250;2023-12-04T09:06:58;48529.28;;;-141.90;38.23
5298;BME280;14738;42.668;23.250;2023-12-04T09:09:23;48493.53;;;-141.90;38.30
5298;BME280;14738;42.668;23.250;2023-12-04T09:11:49;48523.31;;;-141.90;39.18
5298;BME280;14738;42.668;23.250;2023-12-04T09:14:14;48533.25;;;-141.90;38.81
5298;BME280;14738;42.668;23.250;2023-12-04T09:16:41;48517.34;;;-141.90;39.08
5298;BME280;14738;42.668;23.250;2023-12-04T09:19:06;48531.25;;;-141.90;38.48
5298;BME280;14738;42.668;23.250;2023-12-04T09:21:31;48505.44;;;-141.90;37.83
5298;BME280;14738;42.668;23.250;2023-12-04T09:23:57;48509.41;;;-141.90;39.10
5298;BME280;14738;42.668;23.250;2023-12-04T09:26:22;48533.25;;;-141.90;39.46
5298;BME280;14738;42.668;23.250;2023-12-04T09:28:48;48521.34;;;-141.90;38.44
5298;BME280;14738;42.668;23.250;2023-12-04T09:31:14;48509.41;;;-141.90;38.22
5298;BME280;14738;42.668;23.250;2023-12-04T09:33:39;48541.19;;;-141.90;38.75
5298;BME280;14738;42.668;23.250;2023-12-04T09:36:04;48517.34;;;-141.90;38.04
5298;BME280;14738;42.668;23.250;2023-12-04T09:38:30;48501.47;;;-141.90;38.64
5298;BME280;14738;42.668;23.250;2023-12-04T09:40:58;48509.41;;;-141.90;38.59
5298;BME280;14738;42.668;23.250;2023-12-04T09:43:25;48513.38;;;-141.90;39.22
5298;BME280;14738;42.668;23.250;2023-12-04T09:45:51;48457.81;;;-141.90;38.90
5298;BME280;14738;42.668;23.250;2023-12-04T09:48:17;48517.34;;;-141.90;39.40
5298;BME280;14738;42.668;23.250;2023-12-04T09:50:43;48505.44;;;-141.90;39.38
5298;BME280;14738;42.668;23.250;2023-12-04T09:53:10;48483.59;;;-141.90;39.30
5298;BME280;14738;42.668;23.250;2023-12-04T09:55:36;48477.66;;;-141.90;38.05
5298;BME280;14738;42.668;23.250;2023-12-04T09:58:02;48515.38;;;-141.90;38.43
5298;BME280;14738;42.668;23.250;2023-12-04T10:00:28;48513.38;;;-141.90;39.07
5298;BME280;14738;42.668;23.250;2023-12-04T10:02:53;48501.47;;;-141.90;39.13
5298;BME280;14738;42.668;23.250;2023-12-04T10:05:20;48543.16;;;-141.90;38.53
5298;BME280;14738;42.668;23.250;2023-12-04T10:07:46;48509.41;;;-141.90;40.10
5298;BME280;14738;42.668;23.250;2023-12-04T10:10:11;48503.47;;;-141.90;39.98
5298;BME280;14738;42.668;23.250;2023-12-04T10:12:37;48511.41;;;-141.90;40.32
5298;BME280;14738;42.668;23.250;2023-12-04T10:15:07;48537.22;;;-141.90;39.84
5298;BME280;14738;42.668;23.250;2023-12-04T10:17:37;48499.50;;;-141.90;39.87
5298;BME280;14738;42.668;23.250;2023-12-04T10:25:17;48491.56;;;-141.90;39.15
5298;BME280;14738;42.668;23.250;2023-12-04T10:27:44;48525.31;;;-141.90;39.15
5298;BME280;14738;42.668;23.250;2023-12-04T10:30:10;48501.47;;;-141.90;39.55
5298;BME280;14738;42.668;23.250;2023-12-04T10:32:40;48501.47;;;-141.90;39.44
5298;BME280;14738;42.668;23.250;2023-12-04T10:35:05;48471.69;;;-141.90;39.49
5298;BME280;14738;42.668;23.250;2023-12-04T10:37:36;48489.56;;;-141.90;39.95
5298;BME280;14738;42.668;23.250;2023-12-04T10:40:02;48495.53;;;-141.90;39.38
5298;BME280;14738;42.668;23.250;2023-12-04T10:42:29;48493.53;;;-141.90;40.07
5298;BME280;14738;42.668;23.250;2023-12-04T10:44:58;48497.50;;;-141.90;40.06
5298;BME280;14738;42.668;23.250;2023-12-04T10:47:24;48509.41;;;-141.90;39.37
5298;BME280;14738;42.668;23.250;2023-12-04T10:49:50;48491.56;;;-141.90;39.59
5298;BME280;14738;42.668;23.250;2023-12-04T10:52:19;48493.53;;;-141.90;39.85
5298;BME280;14738;42.668;23.250;2023-12-04T10:54:48;48499.50;;;-141.90;39.33
5298;BME280;14738;42.668;23.250;2023-12-04T10:57:22;48497.50;;;-141.90;39.87
5298;BME280;14738;42.668;23.250;2023-12-04T10:59:51;48493.53;;;-141.90;39.14
5298;BME280;14738;42.668;23.250;2023-12-04T11:02:21;48533.25;;;-141.90;39.05
5298;BME280;14738;42.668;23.250;2023-12-04T11:04:55;48515.38;;;-141.90;39.27
5298;BME280;14738;42.668;23.250;2023-12-04T11:07:20;48525.31;;;-141.90;39.13
5298;BME280;14738;42.668;23.250;2023-12-04T11:09:49;48509.41;;;-141.90;38.50
5298;BME280;14738;42.668;23.250;2023-12-04T11:12:18;48489.56;;;-141.90;38.71
5298;BME280;14738;42.668;23.250;2023-12-04T11:14:50;48509.41;;;-141.90;39.22
5298;BME280;14738;42.668;23.250;2023-12-04T11:17:19;48495.53;;;-141.90;39.71
5298;BME280;14738;42.668;23.250;2023-12-04T11:22:11;48511.41;;;-141.90;39.10
5298;BME280;14738;42.668;23.250;2023-12-04T11:24:39;48477.66;;;-141.90;40.02
5298;BME280;14738;42.668;23.250;2023-12-04T11:27:05;48485.59;;;-141.90;39.54
5298;BME280;14738;42.668;23.250;2023-12-04T11:29:31;48517.34;;;-141.90;39.11
5298;BME280;14738;42.668;23.250;2023-12-04T11:31:57;48529.28;;;-141.90;39.22
5298;BME280;14738;42.668;23.250;2023-12-04T11:34:24;48507.44;;;-141.90;39.20
5298;BME280;14738;42.668;23.250;2023-12-04T11:36:50;48501.47;;;-141.90;38.53
5298;BME280;14738;42.668;23.250;2023-12-04T11:39:16;48487.56;;;-141.90;38.63
5298;BME280;14738;42.668;23.250;2023-12-04T11:41:41;48521.34;;;-141.90;38.12
5298;BME280;14738;42.668;23.250;2023-12-04T11:44:13;48473.69;;;-141.90;37.83
5298;BME280;14738;42.668;23.250;2023-12-04T11:46:41;48485.59;;;-141.90;38.49
5298;BME280;14738;42.668;23.250;2023-12-04T11:51:55;48473.69;;;-141.90;38.58
5298;BME280;14738;42.668;23.250;2023-12-04T11:54:22;48505.44;;;-141.90;38.95
5298;BME280;14738;42.668;23.250;2023-12-04T11:57:00;48493.53;;;-141.90;38.06
5298;BME280;14738;42.668;23.250;2023-12-04T11:59:44;48491.56;;;-141.90;38.08
5298;BME280;14738;42.668;23.250;2023-12-04T12:02:10;48511.41;;;-141.90;38.91
5298;BME280;14738;42.668;23.250;2023-12-04T12:04:37;48507.44;;;-141.90;39.05
5298;BME280;14738;42.668;23.250;2023-12-04T12:07:04;48509.41;;;-141.90;38.43
5298;BME280;14738;42.668;23.250;2023-12-04T12:09:31;48489.56;;;-141.90;39.41
5298;BME280;14738;42.668;23.250;2023-12-04T12:12:00;48489.56;;;-141.90;39.68
5298;BME280;14738;42.668;23.250;2023-12-04T12:14:26;48469.72;;;-141.90;39.62
5298;BME280;14738;42.668;23.250;2023-12-04T12:16:51;48481.63;;;-141.90;39.54
5298;BME280;14738;42.668;23.250;2023-12-04T12:19:19;48467.72;;;-141.90;38.07
5298;BME280;14738;42.668;23.250;2023-12-04T12:21:44;48485.59;;;-141.90;38.85
5298;BME280;14738;42.668;23.250;2023-12-04T12:24:11;48519.34;;;-141.90;38.88
5298;BME280;14738;42.668;23.250;2023-12-04T12:26:37;48461.78;;;-141.90;37.94
5298;BME280;14738;42.668;23.250;2023-12-04T12:29:02;48473.69;;;-141.90;38.53
5298;BME280;14738;42.668;23.250;2023-12-04T12:31:28;48497.50;;;-141.90;39.05
5298;BME280;14738;42.668;23.250;2023-12-04T12:33:55;48513.38;;;-141.90;38.10
5298;BME280;14738;42.668;23.250;2023-12-04T12:36:20;48489.56;;;-141.90;38.17